Time;durP1;ratioP1;P1;durP2;ratioP2;P2;SDS_P1;SDS_P2;PMS_P1;PMS_P2;Temp;Humidity;BMP_temperature;BMP_pressure;BME280_temperature;BME280_humidity;BME280_pressure;Samples;Min_cycle;Max_cycle;Signal;HPM_P1;HPM_P2
2022/03/28 00:00:11;;;;;;;7.17;2.60;;;12.50;43.80;;;;;;5023444;28;20200;-74
2022/03/28 00:02:41;;;;;;;7.30;2.83;;;12.50;43.80;;;;;;5026588;28;20187;-74
2022/03/28 00:05:11;;;;;;;8.47;3.03;;;12.50;43.10;;;;;;5024813;28;20917;-73
2022/03/28 00:07:39;;;;;;;7.40;2.80;;;12.50;43.10;;;;;;5022925;28;20204;-73
2022/03/28 00:10:08;;;;;;;14.30;3.20;;;12.50;43.10;;;;;;5025870;28;20245;-75
2022/03/28 00:12:38;;;;;;;6.83;2.60;;;12.50;43.10;;;;;;5026541;28;20210;-75
2022/03/28 00:15:10;;;;;;;6.73;2.47;;;12.40;43.00;;;;;;5024731;28;20229;-73
2022/03/28 00:17:39;;;;;;;9.60;2.97;;;12.40;43.00;;;;;;5023922;28;20192;-74
2022/03/28 00:20:11;;;;;;;13.70;3.47;;;12.40;42.90;;;;;;5021380;28;20192;-75
2022/03/28 00:22:39;;;;;;;8.80;3.20;;;12.40;42.80;;;;;;5023426;28;20209;-74
2022/03/28 00:25:09;;;;;;;10.43;3.27;;;12.30;42.80;;;;;;5025368;28;20230;-73
2022/03/28 00:27:38;;;;;;;10.73;3.73;;;12.30;42.90;;;;;;4973112;28;20203;-74
2022/03/28 00:30:09;;;;;;;13.47;3.60;;;12.30;42.90;;;;;;5026166;28;20223;-74
2022/03/28 00:32:39;;;;;;;11.03;3.27;;;12.30;43.10;;;;;;5023658;28;20191;-74
2022/03/28 00:35:08;;;;;;;13.13;3.77;;;12.30;43.00;;;;;;5023888;28;20199;-74
2022/03/28 00:37:37;;;;;;;9.77;2.80;;;12.30;42.80;;;;;;5024234;28;20201;-74
2022/03/28 00:40:07;;;;;;;13.97;3.33;;;12.30;42.90;;;;;;5025042;28;20279;-74
2022/03/28 00:42:36;;;;;;;7.13;3.00;;;12.40;43.00;;;;;;5022273;28;20229;-74
2022/03/28 00:45:06;;;;;;;10.20;3.07;;;12.30;42.90;;;;;;5025417;28;21675;-74
2022/03/28 00:47:35;;;;;;;6.50;2.90;;;12.30;42.80;;;;;;5025000;28;21571;-74
2022/03/28 00:50:05;;;;;;;8.77;2.73;;;12.40;42.70;;;;;;5021603;28;20227;-73
2022/03/28 00:52:34;;;;;;;13.30;2.53;;;12.40;42.70;;;;;;5023650;28;20214;-73
2022/03/28 00:55:04;;;;;;;12.40;3.03;;;12.40;42.60;;;;;;5024201;28;20914;-74
2022/03/28 00:57:33;;;;;;;18.10;3.33;;;12.40;42.60;;;;;;5022939;28;20195;-74
2022/03/28 01:00:04;;;;;;;12.60;2.63;;;12.40;42.40;;;;;;5023308;28;20196;-74
2022/03/28 01:02:33;;;;;;;9.47;2.37;;;12.40;42.40;;;;;;5025193;28;20297;-74
2022/03/28 01:05:01;;;;;;;8.73;3.03;;;12.50;42.40;;;;;;5024486;28;20922;-74
2022/03/28 01:07:31;;;;;;;11.87;3.23;;;12.50;42.40;;;;;;5025699;28;20293;-75
2022/03/28 01:10:00;;;;;;;8.83;2.40;;;12.50;42.40;;;;;;5025596;28;20215;-74
2022/03/28 01:12:31;;;;;;;7.07;2.40;;;12.50;42.20;;;;;;5024540;28;20203;-75
2022/03/28 01:15:00;;;;;;;9.07;3.20;;;12.40;42.20;;;;;;5024464;28;20195;-74
2022/03/28 01:20:14;;;;;;;7.90;2.83;;;12.40;41.80;;;;;;5023649;28;20811;-73
2022/03/28 01:22:44;;;;;;;8.93;2.37;;;12.50;41.50;;;;;;5025285;28;20283;-73
2022/03/28 01:25:13;;;;;;;6.88;2.30;;;12.40;40.90;;;;;;5024753;28;20448;-74
2022/03/28 01:27:42;;;;;;;5.37;2.30;;;12.40;41.00;;;;;;5026221;28;20212;-74
2022/03/28 01:30:11;;;;;;;6.43;2.33;;;12.40;40.60;;;;;;5023825;28;20215;-74
2022/03/28 01:32:40;;;;;;;14.07;2.83;;;12.40;40.20;;;;;;5022908;28;20202;-73
2022/03/28 01:35:08;;;;;;;9.57;1.83;;;12.40;39.70;;;;;;5025690;28;21656;-73
2022/03/28 01:37:37;;;;;;;6.43;2.20;;;12.40;39.40;;;;;;5023325;28;20208;-74
2022/03/28 01:40:08;;;;;;;6.53;2.43;;;12.40;39.00;;;;;;5025047;28;20191;-75
2022/03/28 01:42:36;;;;;;;9.47;1.90;;;12.40;39.20;;;;;;5024494;28;20235;-75
2022/03/28 01:45:05;;;;;;;9.57;2.60;;;12.40;39.20;;;;;;5024683;28;20844;-74
2022/03/28 01:47:33;;;;;;;11.93;2.10;;;12.30;38.70;;;;;;5023945;28;21270;-74
2022/03/28 01:50:02;;;;;;;8.57;2.03;;;12.30;38.60;;;;;;5027829;28;20195;-75
2022/03/28 01:52:30;;;;;;;12.27;2.63;;;12.30;38.80;;;;;;5027632;28;20807;-74
2022/03/28 01:54:58;;;;;;;9.73;1.77;;;12.30;38.80;;;;;;5029763;28;20207;-74
2022/03/28 01:57:29;;;;;;;6.97;1.83;;;12.30;38.80;;;;;;5027151;28;20204;-74
2022/03/28 01:59:57;;;;;;;6.43;1.70;;;12.30;38.50;;;;;;5028217;28;20407;-74
2022/03/28 02:02:25;;;;;;;4.57;1.70;;;12.30;38.60;;;;;;5028417;28;21015;-74
2022/03/28 02:04:54;;;;;;;8.73;1.87;;;12.20;38.10;;;;;;5028677;28;20225;-74
2022/03/28 02:07:22;;;;;;;4.73;1.63;;;12.20;38.20;;;;;;5027823;28;20200;-75
2022/03/28 02:09:50;;;;;;;10.93;1.97;;;12.20;38.00;;;;;;5027151;28;20208;-74
2022/03/28 02:12:18;;;;;;;8.27;1.80;;;12.20;37.60;;;;;;5027343;28;20222;-77
2022/03/28 02:14:48;;;;;;;8.37;1.97;;;12.20;37.70;;;;;;5027672;28;20211;-74
2022/03/28 02:17:16;;;;;;;3.57;1.67;;;12.20;38.00;;;;;;5027612;28;20192;-74
2022/03/28 02:19:45;;;;;;;3.17;1.53;;;12.20;37.80;;;;;;5028146;28;20207;-73
2022/03/28 02:22:13;;;;;;;7.20;1.63;;;12.10;37.90;;;;;;5027467;28;20727;-75
2022/03/28 02:24:42;;;;;;;9.93;1.67;;;12.10;38.00;;;;;;5026019;28;20203;-74
2022/03/28 02:27:10;;;;;;;5.63;1.90;;;12.10;38.20;;;;;;5025870;28;20195;-74
2022/03/28 02:29:38;;;;;;;4.80;2.20;;;12.10;38.10;;;;;;5027551;28;20230;-75
2022/03/28 02:32:09;;;;;;;4.93;1.97;;;12.00;38.00;;;;;;5026547;28;20215;-75
2022/03/28 02:34:38;;;;;;;6.80;2.00;;;11.90;37.70;;;;;;5026998;28;20202;-75
2022/03/28 02:37:06;;;;;;;5.07;1.90;;;11.90;37.80;;;;;;5028627;28;20200;-74
2022/03/28 02:39:34;;;;;;;9.53;1.83;;;11.80;37.80;;;;;;5026342;28;20573;-75
2022/03/28 02:42:03;;;;;;;5.00;2.23;;;11.80;37.50;;;;;;5026386;28;20406;-75
2022/03/28 02:44:32;;;;;;;5.07;1.70;;;11.70;37.70;;;;;;5026653;28;20187;-74
2022/03/28 02:47:00;;;;;;;8.05;2.35;;;11.70;37.80;;;;;;5026517;28;20453;-75
2022/03/28 02:49:30;;;;;;;8.00;1.60;;;11.60;37.50;;;;;;5024888;28;20207;-75
2022/03/28 02:51:58;;;;;;;3.57;1.43;;;11.60;37.60;;;;;;5026650;28;20214;-74
2022/03/28 02:54:26;;;;;;;14.00;2.07;;;11.50;37.60;;;;;;5025694;28;20218;-74
2022/03/28 02:56:55;;;;;;;3.23;1.83;;;11.40;37.60;;;;;;5024008;28;20722;-74
2022/03/28 02:59:23;;;;;;;6.20;1.87;;;11.40;37.80;;;;;;5024367;28;20662;-74
2022/03/28 03:01:51;;;;;;;4.27;1.80;;;11.30;37.80;;;;;;5027229;28;20209;-74
2022/03/28 03:04:20;;;;;;;8.73;2.10;;;11.20;37.90;;;;;;5026191;28;20701;-74
2022/03/28 03:06:49;;;;;;;5.13;2.20;;;11.10;37.70;;;;;;5026713;28;20203;-74
2022/03/28 03:09:18;;;;;;;7.17;2.13;;;11.10;38.10;;;;;;5024448;28;20714;-74
2022/03/28 03:11:46;;;;;;;7.13;2.40;;;11.00;38.10;;;;;;5025151;28;20219;-74
2022/03/28 03:14:14;;;;;;;8.87;2.23;;;11.00;38.20;;;;;;5025606;28;20199;-75
2022/03/28 03:16:43;;;;;;;8.07;2.50;;;10.90;38.40;;;;;;5025935;28;20202;-75
2022/03/28 03:19:11;;;;;;;9.23;2.13;;;10.90;38.60;;;;;;5027117;28;20206;-73
2022/03/28 03:21:39;;;;;;;10.23;2.90;;;10.80;38.60;;;;;;5023992;28;20212;-77
2022/03/28 03:24:09;;;;;;;12.27;2.33;;;10.80;38.50;;;;;;5027344;28;20217;-74
2022/03/28 03:26:38;;;;;;;10.77;3.00;;;10.80;38.70;;;;;;5023915;28;20199;-74
2022/03/28 03:29:06;;;;;;;6.03;1.97;;;10.70;38.80;;;;;;5026746;28;20218;-74
2022/03/28 03:31:34;;;;;;;5.93;2.40;;;10.80;38.90;;;;;;5025960;28;20893;-75
2022/03/28 03:34:03;;;;;;;7.10;2.37;;;10.80;39.00;;;;;;5026915;28;20207;-74
2022/03/28 03:36:33;;;;;;;5.47;2.20;;;10.70;39.00;;;;;;5024506;28;20209;-74
2022/03/28 03:39:02;;;;;;;9.33;2.07;;;10.70;39.20;;;;;;5025772;28;20202;-74
2022/03/28 03:41:32;;;;;;;6.73;1.93;;;10.70;39.10;;;;;;5025868;28;20198;-74
2022/03/28 03:44:00;;;;;;;7.20;2.57;;;10.60;39.10;;;;;;5025998;28;20238;-74
2022/03/28 03:46:28;;;;;;;6.27;3.00;;;10.60;39.10;;;;;;5023541;28;20217;-74
2022/03/28 03:49:05;;;;;;;12.30;2.37;;;10.50;38.90;;;;;;5026183;28;20252;-74
2022/03/28 03:51:34;;;;;;;7.37;2.30;;;10.50;38.80;;;;;;5024368;28;20202;-74
2022/03/28 03:54:02;;;;;;;6.73;2.30;;;10.50;39.10;;;;;;5023983;28;20204;-73
2022/03/28 03:56:32;;;;;;;8.97;3.20;;;10.40;38.90;;;;;;5024972;28;20201;-74
2022/03/28 03:59:01;;;;;;;6.47;2.40;;;10.40;38.90;;;;;;5025500;28;20221;-74
2022/03/28 04:01:29;;;;;;;5.83;2.70;;;10.30;38.80;;;;;;5023447;28;20222;-75
2022/03/28 04:03:58;;;;;;;10.13;2.43;;;10.30;39.00;;;;;;5025966;28;20208;-74
2022/03/28 04:06:26;;;;;;;8.43;2.87;;;10.20;39.20;;;;;;5023018;28;20203;-74
2022/03/28 04:08:54;;;;;;;8.87;2.47;;;10.20;39.40;;;;;;5024997;28;20765;-73
2022/03/28 04:11:23;;;;;;;12.10;2.63;;;10.20;39.40;;;;;;5024138;28;20205;-74
2022/03/28 04:13:52;;;;;;;8.57;2.90;;;10.10;39.50;;;;;;5027286;28;20206;-74
2022/03/28 04:16:21;;;;;;;8.07;2.80;;;10.10;39.60;;;;;;5025615;28;20207;-74
2022/03/28 04:18:49;;;;;;;8.83;2.60;;;10.10;39.60;;;;;;5024837;28;21101;-74
2022/03/28 04:21:18;;;;;;;9.63;2.67;;;10.10;39.40;;;;;;5024602;28;20224;-74
2022/03/28 04:23:46;;;;;;;8.80;3.10;;;10.00;39.30;;;;;;5024617;28;20197;-74
2022/03/28 04:26:15;;;;;;;9.10;2.80;;;10.00;39.40;;;;;;5025769;28;20212;-74
2022/03/28 04:28:43;;;;;;;9.20;2.97;;;10.00;39.40;;;;;;5025800;28;20847;-74
2022/03/28 04:31:15;;;;;;;15.63;3.27;;;10.00;39.40;;;;;;5025695;28;20206;-73
2022/03/28 04:33:44;;;;;;;8.70;3.03;;;9.90;39.60;;;;;;5026189;28;20739;-73
2022/03/28 04:36:18;;;;;;;7.90;3.00;;;9.90;39.70;;;;;;5026996;28;20825;-73
2022/03/28 04:38:46;;;;;;;9.47;2.47;;;9.90;39.80;;;;;;5026314;28;20216;-73
2022/03/28 04:41:14;;;;;;;8.80;3.17;;;9.90;39.90;;;;;;5026002;28;20200;-73
2022/03/28 04:43:43;;;;;;;8.00;2.80;;;9.90;40.10;;;;;;5024823;28;20232;-73
2022/03/28 04:46:12;;;;;;;12.87;3.07;;;9.90;40.20;;;;;;5025994;28;21578;-74
2022/03/28 04:48:47;;;;;;;7.73;3.00;;;9.90;40.30;;;;;;5024750;28;20195;-75
2022/03/28 04:51:15;;;;;;;8.77;3.27;;;9.90;41.00;;;;;;5025414;28;20244;-75
2022/03/28 04:53:43;;;;;;;7.30;3.40;;;9.90;40.30;;;;;;5024965;28;20191;-76
2022/03/28 04:56:12;;;;;;;7.73;3.40;;;9.90;40.20;;;;;;5024762;28;20241;-74
2022/03/28 04:58:40;;;;;;;11.15;4.15;;;9.90;40.20;;;;;;5024880;28;20884;-74
2022/03/28 05:01:09;;;;;;;13.13;3.47;;;9.90;40.20;;;;;;5026167;28;20198;-75
2022/03/28 05:03:39;;;;;;;6.60;3.30;;;9.90;40.00;;;;;;5025208;28;20214;-75
2022/03/28 05:06:08;;;;;;;8.07;3.10;;;10.00;40.00;;;;;;5025974;28;20289;-75
2022/03/28 05:08:37;;;;;;;9.70;3.30;;;9.90;39.90;;;;;;5024031;28;20206;-75
2022/03/28 05:11:06;;;;;;;6.87;3.50;;;10.00;39.80;;;;;;5022864;28;20551;-76
2022/03/28 05:13:34;;;;;;;11.70;3.80;;;10.00;39.70;;;;;;5024319;28;20653;-75
2022/03/28 05:16:02;;;;;;;10.97;3.30;;;10.00;39.80;;;;;;5025179;28;20212;-74
2022/03/28 05:18:34;;;;;;;8.63;3.30;;;10.10;40.00;;;;;;5021591;28;20632;-75
2022/03/28 05:21:04;;;;;;;11.63;4.10;;;10.20;40.80;;;;;;5025332;28;20888;-75
2022/03/28 05:23:33;;;;;;;10.90;3.60;;;10.30;40.50;;;;;;5026457;28;20236;-75
2022/03/28 05:26:02;;;;;;;10.43;3.77;;;10.40;40.60;;;;;;5030089;28;20195;-75
2022/03/28 05:28:31;;;;;;;8.53;3.80;;;10.40;40.30;;;;;;5029763;28;20215;-75
2022/03/28 05:30:59;;;;;;;13.55;4.35;;;10.40;40.00;;;;;;5027903;28;20441;-77
2022/03/28 05:33:28;;;;;;;8.03;3.70;;;10.50;40.00;;;;;;5030550;28;20197;-75
2022/03/28 05:35:57;;;;;;;12.30;3.63;;;10.50;40.10;;;;;;5028296;28;21649;-74
2022/03/28 05:38:28;;;;;;;7.93;3.27;;;10.60;40.10;;;;;;5030051;28;20210;-75
2022/03/28 05:40:57;;;;;;;8.67;3.40;;;10.70;39.90;;;;;;5027827;28;20210;-75
2022/03/28 05:43:25;;;;;;;16.07;3.23;;;10.70;39.90;;;;;;5029328;28;20231;-75
2022/03/28 05:45:55;;;;;;;8.37;3.50;;;10.80;40.00;;;;;;5029272;28;20645;-75
2022/03/28 05:48:23;;;;;;;16.70;3.87;;;10.90;40.00;;;;;;5029802;28;20198;-75
2022/03/28 05:50:52;;;;;;;10.53;3.70;;;11.00;40.00;;;;;;5029843;28;20195;-75
2022/03/28 05:53:20;;;;;;;13.57;4.03;;;11.10;39.90;;;;;;5030009;28;20931;-75
2022/03/28 05:55:50;;;;;;;10.33;4.13;;;11.20;39.90;;;;;;5027871;28;20568;-74
2022/03/28 05:58:19;;;;;;;8.97;4.10;;;11.20;39.70;;;;;;4978064;28;20268;-76
2022/03/28 06:00:47;;;;;;;9.20;4.53;;;11.30;39.70;;;;;;5031499;28;20199;-75
2022/03/28 06:03:16;;;;;;;11.87;4.07;;;11.40;39.70;;;;;;5028296;28;20211;-76
2022/03/28 06:06:03;;;;;;;16.53;4.50;;;11.40;39.80;;;;;;5030164;28;20352;-75
2022/03/28 06:08:32;;;;;;;19.67;4.20;;;11.50;39.60;;;;;;5028808;28;20200;-74
2022/03/28 06:11:03;;;;;;;14.27;4.73;;;11.60;39.50;;;;;;5029144;28;20195;-76
2022/03/28 06:13:32;;;;;;;9.27;3.43;;;11.70;39.30;;;;;;5030705;28;20198;-76
2022/03/28 06:16:00;;;;;;;17.90;3.80;;;11.80;39.10;;;;;;5029412;28;20648;-76
2022/03/28 06:18:29;;;;;;;7.67;3.40;;;11.80;38.90;;;;;;5028929;28;20616;-76
2022/03/28 06:20:58;;;;;;;12.40;4.97;;;11.90;38.90;;;;;;5029027;28;20199;-76
2022/03/28 06:23:27;;;;;;;12.47;3.80;;;12.00;38.80;;;;;;5027869;28;20868;-76
2022/03/28 06:25:55;;;;;;;8.93;3.60;;;12.00;38.60;;;;;;5030080;28;20196;-75
2022/03/28 06:28:25;;;;;;;11.00;4.17;;;12.10;38.60;;;;;;5028905;28;20198;-76
2022/03/28 06:30:54;;;;;;;11.65;4.50;;;12.20;38.50;;;;;;5026982;28;20437;-76
2022/03/28 06:33:25;;;;;;;14.27;4.10;;;12.30;38.50;;;;;;5027435;28;20199;-76
2022/03/28 06:35:53;;;;;;;13.67;3.93;;;12.40;38.50;;;;;;5027431;28;20196;-76
2022/03/28 06:38:22;;;;;;;11.03;4.30;;;12.50;38.50;;;;;;5029696;28;20207;-75
2022/03/28 06:40:50;;;;;;;13.27;4.30;;;12.60;38.50;;;;;;5029251;28;20216;-76
2022/03/28 06:43:19;;;;;;;11.77;3.83;;;12.60;38.00;;;;;;5026369;28;20235;-76
2022/03/28 06:45:50;;;;;;;11.60;3.77;;;12.70;38.10;;;;;;5029197;28;20227;-76
2022/03/28 06:48:19;;;;;;;12.57;3.87;;;12.80;38.10;;;;;;5027669;28;20200;-76
2022/03/28 06:51:00;;;;;;;11.80;3.80;;;12.90;37.60;;;;;;5028680;28;20653;-75
2022/03/28 06:53:29;;;;;;;12.83;3.67;;;13.00;37.50;;;;;;5028055;28;20192;-75
2022/03/28 06:55:57;;;;;;;7.07;3.10;;;13.10;37.20;;;;;;5027554;28;20204;-77
2022/03/28 06:58:25;;;;;;;12.50;4.30;;;13.20;37.20;;;;;;5028810;28;20211;-77
2022/03/28 07:00:55;;;;;;;10.07;3.13;;;13.30;37.10;;;;;;5027065;28;20191;-76
2022/03/28 07:03:24;;;;;;;11.10;3.73;;;13.40;37.10;;;;;;5027629;28;20212;-75
2022/03/28 07:05:52;;;;;;;10.55;4.00;;;13.50;37.10;;;;;;5027093;28;20861;-75
2022/03/28 07:08:22;;;;;;;8.37;3.20;;;13.60;36.50;;;;;;5028266;28;20202;-75
2022/03/28 07:10:54;;;;;;;11.17;3.33;;;13.60;36.40;;;;;;5027488;28;20203;-75
2022/03/28 07:13:22;;;;;;;6.77;3.50;;;13.70;35.90;;;;;;5027945;28;20192;-75
2022/03/28 07:15:50;;;;;;;12.23;3.23;;;13.80;35.70;;;;;;5027204;28;20192;-74
2022/03/28 07:18:22;;;;;;;8.63;3.67;;;13.80;35.40;;;;;;5026570;28;20234;-75
2022/03/28 07:20:51;;;;;;;9.90;3.00;;;13.90;35.00;;;;;;5027810;28;20629;-74
2022/03/28 07:23:20;;;;;;;7.27;2.80;;;14.00;35.50;;;;;;5026771;28;20224;-75
2022/03/28 07:25:49;;;;;;;14.93;3.30;;;14.00;34.70;;;;;;5027183;28;20954;-75
2022/03/28 07:28:18;;;;;;;8.80;3.47;;;14.10;35.10;;;;;;5027467;28;20199;-74
2022/03/28 07:30:47;;;;;;;10.10;3.70;;;14.20;34.70;;;;;;5027066;28;20236;-75
2022/03/28 07:33:15;;;;;;;6.93;2.70;;;14.30;34.60;;;;;;4992635;28;20562;-75
2022/03/28 07:35:50;;;;;;;8.80;2.97;;;14.30;34.10;;;;;;5025958;28;20482;-74
2022/03/28 07:38:18;;;;;;;13.30;2.90;;;14.40;34.40;;;;;;5028167;28;20208;-75
2022/03/28 07:40:47;;;;;;;13.90;3.50;;;14.40;33.90;;;;;;5026735;28;20206;-75
2022/03/28 07:43:17;;;;;;;9.33;2.73;;;14.50;34.20;;;;;;5027011;28;20230;-75
2022/03/28 07:45:48;;;;;;;12.53;3.30;;;14.60;34.30;;;;;;5026617;28;20208;-74
2022/03/28 07:48:17;;;;;;;15.47;2.97;;;14.70;34.20;;;;;;5028764;28;20203;-73
2022/03/28 07:50:45;;;;;;;5.97;2.60;;;14.70;34.00;;;;;;5027945;28;20199;-74
2022/03/28 07:53:21;;;;;;;12.93;3.53;;;14.80;33.80;;;;;;5026582;28;20781;-74
2022/03/28 07:55:50;;;;;;;9.00;2.80;;;14.80;33.60;;;;;;5025938;28;20188;-74
2022/03/28 07:58:18;;;;;;;6.00;2.80;;;14.90;33.90;;;;;;5026171;28;20203;-75
2022/03/28 08:00:47;;;;;;;10.00;3.23;;;15.00;33.70;;;;;;5027319;28;20699;-74
2022/03/28 08:03:15;;;;;;;4.63;2.40;;;15.00;33.30;;;;;;5026241;28;20191;-75
2022/03/28 08:05:44;;;;;;;7.13;2.93;;;15.10;33.40;;;;;;5026707;28;20200;-74
2022/03/28 08:08:12;;;;;;;10.13;2.83;;;15.20;33.40;;;;;;5028770;28;20285;-75
2022/03/28 08:10:42;;;;;;;8.93;2.80;;;15.20;32.90;;;;;;5028314;28;20202;-76
2022/03/28 08:13:10;;;;;;;17.60;2.90;;;15.30;32.90;;;;;;5027094;28;20199;-75
2022/03/28 08:15:39;;;;;;;13.53;2.57;;;15.40;32.80;;;;;;5027768;28;20210;-75
2022/03/28 08:18:07;;;;;;;12.60;3.03;;;15.50;33.20;;;;;;5025994;28;20199;-75
2022/03/28 08:20:36;;;;;;;12.47;2.53;;;15.50;32.70;;;;;;5026011;28;20212;-76
2022/03/28 08:23:05;;;;;;;9.47;2.53;;;15.60;33.00;;;;;;5029531;28;20210;-75
2022/03/28 08:25:34;;;;;;;10.47;2.60;;;15.70;32.70;;;;;;5026039;28;20237;-75
2022/03/28 08:28:04;;;;;;;9.60;2.57;;;15.70;32.70;;;;;;5025961;28;20261;-75
2022/03/28 08:30:35;;;;;;;6.83;2.50;;;15.80;32.80;;;;;;5026770;28;20329;-75
2022/03/28 08:33:04;;;;;;;9.47;3.23;;;15.90;32.80;;;;;;5024742;28;20654;-75
2022/03/28 08:35:32;;;;;;;11.53;3.30;;;15.90;31.80;;;;;;5024881;28;20202;-75
2022/03/28 08:38:00;;;;;;;12.53;2.40;;;16.00;31.90;;;;;;5026382;28;20204;-74
2022/03/28 08:40:29;;;;;;;12.20;2.67;;;16.10;31.90;;;;;;5026682;28;20206;-74
2022/03/28 08:42:57;;;;;;;8.57;2.50;;;16.20;31.80;;;;;;5023810;28;20226;-75
2022/03/28 08:45:27;;;;;;;7.37;2.90;;;16.30;31.80;;;;;;5025240;28;20711;-76
2022/03/28 08:47:58;;;;;;;15.23;2.30;;;16.30;31.70;;;;;;5027672;28;20203;-75
2022/03/28 08:50:43;;;;;;;6.33;2.60;;;16.40;31.40;;;;;;5027656;28;20199;-76
2022/03/28 08:53:13;;;;;;;9.30;2.60;;;16.50;32.00;;;;;;5026539;28;20196;-75
2022/03/28 08:55:42;;;;;;;13.87;3.20;;;16.60;32.30;;;;;;5026993;28;20191;-75
2022/03/28 08:58:13;;;;;;;5.47;2.90;;;16.60;32.20;;;;;;5026036;28;20210;-75
2022/03/28 09:00:43;;;;;;;8.33;2.80;;;16.70;32.10;;;;;;5025359;28;20198;-75
2022/03/28 09:03:14;;;;;;;14.63;3.30;;;16.80;32.00;;;;;;5025382;28;20226;-75
2022/03/28 09:05:47;;;;;;;11.47;2.60;;;16.80;31.60;;;;;;5027731;28;20291;-76
2022/03/28 09:08:15;;;;;;;8.77;2.80;;;16.90;31.90;;;;;;5026310;28;20195;-75
2022/03/28 09:10:48;;;;;;;9.40;2.67;;;17.00;31.50;;;;;;5024462;28;20195;-75
2022/03/28 09:13:18;;;;;;;12.03;2.53;;;17.00;31.60;;;;;;5025958;28;20195;-75
2022/03/28 09:15:51;;;;;;;15.77;2.53;;;17.10;31.50;;;;;;5024909;28;20183;-75
2022/03/28 09:18:27;;;;;;;9.93;2.70;;;17.20;31.60;;;;;;5025715;28;20557;-75
2022/03/28 09:21:00;;;;;;;10.33;3.33;;;17.20;31.60;;;;;;4989616;28;20187;-75
2022/03/28 09:23:37;;;;;;;9.57;3.03;;;17.30;32.10;;;;;;5026384;28;20213;-75
2022/03/28 09:26:12;;;;;;;14.23;3.57;;;17.30;32.20;;;;;;5024483;28;20215;-76
2022/03/28 09:28:46;;;;;;;7.87;2.97;;;17.30;32.30;;;;;;5024893;28;20960;-77
2022/03/28 09:31:27;;;;;;;11.90;2.80;;;17.40;32.10;;;;;;5026095;28;20199;-76
2022/03/28 09:34:02;;;;;;;8.70;2.60;;;17.50;32.30;;;;;;5026018;28;20286;-77
2022/03/28 09:36:49;;;;;;;23.23;3.17;;;17.50;32.10;;;;;;5024966;28;20209;-77
2022/03/28 09:39:20;;;;;;;11.33;2.60;;;17.60;32.00;;;;;;5025445;28;20194;-78
2022/03/28 09:42:02;;;;;;;9.93;2.73;;;17.60;31.60;;;;;;5024352;28;20231;-78
2022/03/28 09:44:38;;;;;;;13.60;2.83;;;17.70;31.20;;;;;;5023308;28;20223;-77
2022/03/28 09:47:09;;;;;;;7.60;2.67;;;17.70;31.40;;;;;;5024484;28;20743;-77
2022/03/28 09:49:38;;;;;;;10.50;3.20;;;17.80;31.70;;;;;;5024279;28;21002;-77
2022/03/28 09:52:11;;;;;;;9.37;3.27;;;17.90;32.10;;;;;;5024763;28;20206;-77
2022/03/28 09:54:49;;;;;;;6.93;2.40;;;17.90;31.30;;;;;;5023801;28;20196;-78
2022/03/28 09:57:22;;;;;;;13.27;2.87;;;17.90;31.50;;;;;;5025637;28;20203;-77
2022/03/28 09:59:52;;;;;;;12.83;2.83;;;18.00;31.70;;;;;;5025791;28;20192;-78
2022/03/28 10:02:26;;;;;;;8.13;3.07;;;18.00;30.90;;;;;;5029014;28;20211;-77
2022/03/28 10:04:56;;;;;;;8.07;2.67;;;18.00;30.80;;;;;;5024318;28;20206;-76
2022/03/28 10:07:25;;;;;;;8.77;2.37;;;18.10;31.20;;;;;;5025030;28;20282;-76
2022/03/28 10:10:00;;;;;;;10.33;3.43;;;18.20;31.30;;;;;;5027837;28;21042;-76
2022/03/28 10:12:31;;;;;;;13.47;2.90;;;18.30;31.30;;;;;;5028899;28;20195;-77
2022/03/28 10:15:01;;;;;;;15.47;3.07;;;18.40;31.30;;;;;;5028250;28;20855;-77
2022/03/28 10:17:31;;;;;;;10.53;2.63;;;18.40;31.30;;;;;;5027747;28;20841;-77
2022/03/28 10:20:02;;;;;;;9.13;3.30;;;18.40;31.20;;;;;;5029403;28;20203;-76
2022/03/28 10:22:54;;;;;;;10.10;2.50;;;18.50;31.00;;;;;;5028466;28;20242;-76
2022/03/28 10:25:25;;;;;;;10.33;2.93;;;18.60;31.40;;;;;;5029413;28;20216;-77
2022/03/28 10:27:55;;;;;;;13.37;3.30;;;18.60;31.20;;;;;;5028819;28;20294;-78
2022/03/28 10:30:27;;;;;;;9.07;2.70;;;18.70;31.40;;;;;;5028209;28;20657;-76
2022/03/28 10:33:14;;;;;;;6.43;3.07;;;18.80;31.50;;;;;;5029628;28;20219;-75
2022/03/28 10:35:57;;;;;;;9.47;3.33;;;18.80;31.30;;;;;;5027864;28;20191;-76
2022/03/28 10:38:26;;;;;;;12.50;2.80;;;18.90;30.90;;;;;;5025422;28;20200;-77
2022/03/28 10:40:57;;;;;;;9.97;2.97;;;19.00;31.00;;;;;;5027745;28;20231;-77
2022/03/28 10:43:28;;;;;;;16.30;3.10;;;19.00;31.10;;;;;;5027790;28;20230;-77
2022/03/28 10:45:58;;;;;;;14.37;3.40;;;19.10;30.80;;;;;;5028194;28;20214;-77
2022/03/28 10:48:39;;;;;;;12.17;3.23;;;19.10;30.30;;;;;;5028598;28;20333;-76
2022/03/28 10:51:09;;;;;;;9.63;2.70;;;19.10;30.40;;;;;;5028486;28;20281;-75
2022/03/28 10:53:40;;;;;;;12.60;3.30;;;19.20;30.40;;;;;;5027657;28;20211;-74
2022/03/28 10:56:14;;;;;;;9.00;3.40;;;19.20;30.70;;;;;;5028389;28;20262;-75
2022/03/28 10:58:45;;;;;;;9.93;3.67;;;19.30;31.00;;;;;;5026474;28;20557;-75
2022/03/28 11:01:25;;;;;;;12.03;3.23;;;19.40;30.50;;;;;;5029727;28;20798;-75
2022/03/28 11:04:00;;;;;;;11.55;3.30;;;19.40;30.80;;;;;;5028497;28;20549;-74
2022/03/28 11:07:00;;;;;;;8.20;3.20;;;19.40;30.60;;;;;;5026875;28;20943;-75
2022/03/28 11:09:51;;;;;;;8.73;3.87;;;19.50;31.00;;;;;;5024437;28;20191;-77
2022/03/28 11:12:22;;;;;;;10.50;4.03;;;19.60;31.20;;;;;;5026941;28;20675;-76
2022/03/28 11:15:02;;;;;;;16.50;3.97;;;19.60;31.40;;;;;;5028050;28;20191;-76
2022/03/28 11:17:33;;;;;;;8.17;3.40;;;19.70;31.10;;;;;;5024453;28;20208;-75
2022/03/28 11:20:11;;;;;;;10.80;3.00;;;19.80;30.80;;;;;;5025114;28;20669;-74
2022/03/28 11:22:54;;;;;;;11.13;3.80;;;19.80;30.40;;;;;;5028061;28;20203;-76
2022/03/28 11:25:51;;;;;;;14.17;3.67;;;19.80;30.50;;;;;;5027295;28;20211;-76
2022/03/28 11:28:25;;;;;;;14.13;3.63;;;19.90;30.70;;;;;;5027525;28;20202;-77
2022/03/28 11:31:03;;;;;;;11.90;3.13;;;19.90;30.60;;;;;;5024081;28;20201;-76
2022/03/28 11:33:44;;;;;;;15.00;4.07;;;20.00;30.80;;;;;;5027252;28;20199;-76
2022/03/28 11:36:14;;;;;;;14.40;4.27;;;20.10;31.30;;;;;;5026915;28;20195;-75
2022/03/28 11:38:45;;;;;;;11.23;3.87;;;20.20;31.40;;;;;;5026223;28;20672;-75
2022/03/28 11:41:15;;;;;;;9.50;3.93;;;20.30;31.20;;;;;;5028100;28;20379;-74
2022/03/28 11:43:45;;;;;;;14.33;3.80;;;20.30;31.00;;;;;;5025726;28;20226;-76
2022/03/28 11:46:18;;;;;;;11.60;4.07;;;20.40;31.30;;;;;;5027998;28;20647;-74
2022/03/28 11:48:57;;;;;;;13.07;3.90;;;20.50;31.30;;;;;;5026629;28;20278;-74
2022/03/28 11:51:27;;;;;;;13.37;4.20;;;20.60;31.30;;;;;;5027029;28;20210;-75
2022/03/28 11:53:57;;;;;;;12.73;3.93;;;20.60;31.30;;;;;;5025775;28;20205;-74
2022/03/28 11:56:29;;;;;;;12.60;4.23;;;20.70;31.20;;;;;;5026143;28;20187;-74
2022/03/28 11:59:03;;;;;;;10.00;5.00;;;20.80;31.50;;;;;;5027759;28;20200;-76
2022/03/28 12:01:35;;;;;;;12.70;4.80;;;20.80;31.50;;;;;;5026460;28;20199;-75
2022/03/28 12:04:04;;;;;;;10.00;4.20;;;20.80;31.50;;;;;;5026049;28;20887;-74
2022/03/28 12:06:36;;;;;;;19.87;4.83;;;20.90;32.00;;;;;;5026553;28;20230;-74
2022/03/28 12:09:06;;;;;;;9.60;4.33;;;21.00;32.20;;;;;;5027133;28;20270;-75
2022/03/28 12:11:36;;;;;;;12.53;4.77;;;21.00;31.50;;;;;;5028902;28;20210;-75
2022/03/28 12:14:06;;;;;;;13.93;4.63;;;21.10;32.50;;;;;;5027135;28;20222;-74
2022/03/28 12:16:45;;;;;;;14.27;5.07;;;21.20;32.10;;;;;;5026922;28;20194;-75
2022/03/28 12:19:19;;;;;;;11.77;4.70;;;21.30;32.50;;;;;;5027018;28;20244;-74
2022/03/28 12:21:48;;;;;;;15.83;4.80;;;21.30;31.80;;;;;;5026722;28;20708;-75
2022/03/28 12:24:17;;;;;;;13.10;4.73;;;21.40;31.80;;;;;;5025748;28;20286;-75
2022/03/28 12:26:47;;;;;;;13.93;4.97;;;21.50;31.60;;;;;;5026711;28;20215;-75
2022/03/28 12:29:17;;;;;;;16.27;5.30;;;21.50;31.60;;;;;;5025953;28;20191;-75
2022/03/28 12:31:49;;;;;;;17.20;4.90;;;21.60;31.60;;;;;;5026542;28;20210;-75
2022/03/28 12:34:20;;;;;;;13.18;5.05;;;21.70;31.70;;;;;;5026820;28;20196;-75
2022/03/28 12:36:48;;;;;;;11.45;4.57;;;21.80;31.90;;;;;;5026358;28;20568;-75
2022/03/28 12:39:20;;;;;;;11.07;4.57;;;21.90;31.30;;;;;;5025280;28;20203;-75
2022/03/28 12:41:53;;;;;;;15.13;5.55;;;22.00;31.50;;;;;;5025457;28;20676;-75
2022/03/28 12:44:23;;;;;;;11.95;4.85;;;22.00;31.20;;;;;;5026727;28;20637;-75
2022/03/28 12:47:03;;;;;;;9.18;5.07;;;22.20;31.20;;;;;;5025198;28;20226;-76
2022/03/28 12:49:41;;;;;;;12.85;4.80;;;22.20;30.70;;;;;;5025641;28;21825;-75
2022/03/28 12:52:11;;;;;;;9.90;5.05;;;22.40;30.90;;;;;;5022942;28;20215;-74
2022/03/28 12:54:40;;;;;;;9.05;4.57;;;22.50;30.70;;;;;;5024659;28;20227;-75
2022/03/28 12:57:11;;;;;;;16.08;4.65;;;22.60;30.60;;;;;;5026046;28;20199;-75
2022/03/28 12:59:40;;;;;;;11.40;5.00;;;22.70;30.60;;;;;;5023742;28;20206;-76
2022/03/28 13:02:13;;;;;;;10.20;4.15;;;22.80;30.60;;;;;;5024165;28;20683;-75